createdAt,value
2023-02-01T00:02:55.707Z,5.53
2023-02-01T00:07:57.169Z,5.43
2023-02-01T00:12:58.706Z,4.50
2023-02-01T00:18:00.216Z,5.45
2023-02-01T00:23:01.688Z,4.70
2023-02-01T00:28:03.167Z,5.68
2023-02-01T00:33:04.763Z,5.85
2023-02-01T00:38:06.317Z,4.93
2023-02-01T00:43:07.812Z,5.30
2023-02-01T00:48:09.376Z,5.20
2023-02-01T00:53:11.805Z,4.80
2023-02-01T00:58:13.370Z,4.25
2023-02-01T01:03:20.607Z,4.85
2023-02-01T01:08:22.079Z,4.18
2023-02-01T01:13:23.799Z,4.95
2023-02-01T01:18:25.390Z,5.65
2023-02-01T01:23:28.014Z,5.10
2023-02-01T01:28:29.501Z,4.57
2023-02-01T01:33:31.026Z,4.93
2023-02-01T01:38:32.509Z,5.70
2023-02-01T01:43:53.259Z,5.32
2023-02-01T01:49:18.626Z,4.53
2023-02-01T01:54:28.315Z,5.22
2023-02-01T01:59:33.417Z,5.45
2023-02-01T02:04:36.256Z,4.45
2023-02-01T02:09:38.610Z,5.18
2023-02-01T02:14:41.300Z,5.13
2023-02-01T02:20:11.786Z,5.82
2023-02-01T02:25:45.529Z,5.57
2023-02-01T02:31:08.135Z,4.97
2023-02-01T02:36:35.489Z,4.57
2023-02-01T02:42:06.369Z,4.88
2023-02-01T02:47:27.054Z,5.22
2023-02-01T02:52:47.910Z,4.82
2023-02-01T02:58:09.146Z,5.25
2023-02-01T03:03:29.451Z,4.22
2023-02-01T03:08:32.277Z,6.65
2023-02-01T03:13:39.565Z,6.07
2023-02-01T03:18:58.918Z,4.97
2023-02-01T03:24:08.878Z,5.22
2023-02-01T03:29:15.498Z,4.85
2023-02-01T03:34:17.645Z,5.47
2023-02-01T03:39:28.560Z,4.78
2023-02-01T03:44:42.369Z,5.00
2023-02-01T03:49:48.820Z,5.18
2023-02-01T03:54:53.132Z,6.22
2023-02-01T04:00:09.105Z,5.80
2023-02-01T04:05:10.701Z,5.45
2023-02-01T04:10:13.032Z,5.28
2023-02-01T04:15:14.640Z,4.82
2023-02-01T04:20:16.521Z,5.82
2023-02-01T04:25:18.388Z,5.15
2023-02-01T04:30:20.059Z,4.30
2023-02-01T04:35:21.763Z,4.40
2023-02-01T04:40:23.523Z,4.38
2023-02-01T04:45:25.283Z,5.28
2023-02-01T04:50:26.854Z,4.68
2023-02-01T04:55:28.357Z,4.20
2023-02-01T05:00:29.943Z,5.47
2023-02-01T05:05:31.667Z,5.05
2023-02-01T05:10:33.206Z,4.28
2023-02-01T05:15:34.820Z,4.90
2023-02-01T05:20:36.362Z,5.60
2023-02-01T05:25:37.883Z,4.85
2023-02-01T05:30:42.067Z,4.03
2023-02-01T05:35:43.860Z,4.53
2023-02-01T05:40:50.428Z,4.57
2023-02-01T05:45:55.292Z,5.07
2023-02-01T05:50:56.835Z,4.38
2023-02-01T05:55:58.395Z,4.47
2023-02-01T06:01:01.450Z,4.43
2023-02-01T06:06:03.096Z,4.03
2023-02-01T06:11:06.093Z,3.67
2023-02-01T06:16:08.467Z,4.43
2023-02-01T06:21:10.188Z,4.30
2023-02-01T06:26:11.674Z,4.18
2023-02-01T06:31:13.655Z,4.18
2023-02-01T06:36:16.997Z,5.45
2023-02-01T06:41:18.892Z,4.70
2023-02-01T06:46:20.568Z,4.63
2023-02-01T06:51:25.804Z,4.40
2023-02-01T06:56:27.876Z,4.88
2023-02-01T07:01:29.391Z,4.95
2023-02-01T07:06:32.599Z,4.28
2023-02-01T07:11:34.258Z,4.03
2023-02-01T07:16:35.886Z,4.30
2023-02-01T07:21:37.431Z,4.80
2023-02-01T07:26:39.028Z,3.67
2023-02-01T07:31:40.554Z,4.50
2023-02-01T07:36:42.828Z,4.88
2023-02-01T07:41:44.453Z,4.93
2023-02-01T07:46:45.925Z,4.22
2023-02-01T07:51:47.403Z,3.75
2023-02-01T07:56:48.923Z,4.57
2023-02-01T08:01:50.535Z,4.93
2023-02-01T08:06:52.085Z,3.92
2023-02-01T08:11:53.582Z,4.50
2023-02-01T08:16:55.153Z,4.53
2023-02-01T08:21:56.677Z,3.92
2023-02-01T08:26:58.221Z,4.50
2023-02-01T08:31:59.804Z,4.10
2023-02-01T08:37:01.337Z,5.13
2023-02-01T08:42:21.379Z,3.85
2023-02-01T08:47:23.284Z,3.67
2023-02-01T08:52:24.878Z,4.78
2023-02-01T08:57:26.414Z,4.63
2023-02-01T09:02:27.930Z,4.03
2023-02-01T09:07:29.450Z,4.40
2023-02-01T09:12:32.686Z,3.55
2023-02-01T09:17:34.218Z,3.75
2023-02-01T09:22:35.767Z,3.63
2023-02-01T09:27:37.291Z,4.50
2023-02-01T09:32:38.829Z,3.70
2023-02-01T09:37:40.422Z,5.43
2023-02-01T09:43:10.974Z,4.25
2023-02-01T09:48:21.004Z,4.78
2023-02-01T09:53:35.941Z,4.82
2023-02-01T09:58:43.256Z,4.03
2023-02-01T10:03:44.763Z,5.03
2023-02-01T10:08:59.087Z,4.15
2023-02-01T10:14:15.291Z,3.90
2023-02-01T10:19:19.515Z,4.88
2023-02-01T10:24:32.059Z,4.38
2023-02-01T10:29:40.270Z,5.80
2023-02-01T10:34:43.346Z,5.53
2023-02-01T10:39:44.843Z,4.90
2023-02-01T10:44:49.060Z,5.57
2023-02-01T10:49:53.256Z,4.50
2023-02-01T10:54:54.762Z,5.05
2023-02-01T10:59:56.975Z,4.80
2023-02-01T11:05:10.357Z,4.75
2023-02-01T11:10:39.732Z,3.97
2023-02-01T11:15:45.360Z,4.07
2023-02-01T11:20:53.089Z,4.45
2023-02-01T11:30:59.584Z,4.82
2023-02-01T11:36:08.940Z,4.43
2023-02-01T11:41:27.109Z,4.20
2023-02-01T11:46:34.176Z,4.05
2023-02-01T11:51:48.135Z,3.83
2023-02-01T11:57:11.451Z,4.50
2023-02-01T12:02:46.843Z,4.30
2023-02-01T12:08:12.688Z,5.18
2023-02-01T12:13:20.039Z,4.25
2023-02-01T12:18:44.126Z,4.45
2023-02-01T12:23:51.767Z,4.68
2023-02-01T12:29:02.276Z,5.68
2023-02-01T12:34:51.119Z,4.50
2023-02-01T12:40:23.100Z,4.45
2023-02-01T12:45:35.780Z,4.93
2023-02-01T12:50:46.756Z,4.30
2023-02-01T12:55:53.105Z,4.72
2023-02-01T13:01:05.696Z,5.25
2023-02-01T13:06:14.133Z,4.50
2023-02-01T13:11:49.033Z,5.07
2023-02-01T13:16:54.257Z,6.10
2023-02-01T13:22:12.954Z,4.93
2023-02-01T13:27:15.705Z,5.35
2023-02-01T13:33:51.509Z,4.82
2023-02-01T13:38:00.550Z,5.93
2023-02-01T13:43:09.106Z,4.65
2023-02-01T13:48:21.794Z,4.88
2023-02-01T13:53:37.812Z,4.45
2023-02-01T13:58:42.339Z,4.65
2023-02-01T14:03:47.930Z,4.93
2023-02-01T14:09:09.390Z,5.22
2023-02-01T14:14:17.056Z,4.20
2023-02-01T14:19:33.147Z,5.07
2023-02-01T14:24:36.501Z,4.38
2023-02-01T14:29:40.271Z,5.65
2023-02-01T14:34:47.829Z,4.65
2023-02-01T14:40:14.168Z,5.65
2023-02-01T14:45:19.780Z,4.78
2023-02-01T14:50:31.609Z,3.97
2023-02-01T14:55:59.882Z,3.90
2023-02-01T15:06:07.120Z,1.52
2023-02-01T15:11:15.236Z,1.50
2023-02-01T15:16:18.022Z,2.63
2023-02-01T15:21:28.610Z,2.97
2023-02-01T15:26:33.460Z,3.58
2023-02-01T15:31:38.817Z,5.25
2023-02-01T15:36:45.827Z,4.55
2023-02-01T15:42:02.952Z,5.00
2023-02-01T15:47:17.360Z,5.43
2023-02-01T15:52:31.379Z,4.80
2023-02-01T15:57:36.993Z,5.68
2023-02-01T16:02:51.817Z,4.65
2023-02-01T16:08:11.607Z,5.32
2023-02-01T16:13:14.543Z,4.65
2023-02-01T16:18:18.776Z,3.95
2023-02-01T16:23:21.435Z,4.68
2023-02-01T16:28:22.958Z,4.80
2023-02-01T16:33:25.081Z,5.53
2023-02-01T16:38:27.588Z,3.88
2023-02-01T16:43:29.135Z,5.28
2023-02-01T16:48:34.601Z,5.70
2023-02-01T16:53:48.312Z,5.47
2023-02-01T16:58:55.279Z,4.93
2023-02-01T17:03:57.297Z,5.88
2023-02-01T17:09:00.372Z,5.10
2023-02-01T17:14:25.926Z,4.80
2023-02-01T17:19:27.560Z,4.50
2023-02-01T17:24:42.715Z,4.43
2023-02-01T17:29:49.825Z,6.45
2023-02-01T17:34:51.614Z,4.88
2023-02-01T17:39:56.004Z,4.95
2023-02-01T17:45:11.921Z,5.20
2023-02-01T17:50:13.936Z,5.75
2023-02-01T17:55:22.648Z,5.95
2023-02-01T18:00:24.385Z,4.03
2023-02-01T18:05:43.047Z,4.72
2023-02-01T18:10:44.905Z,4.75
2023-02-01T18:15:46.525Z,5.43
2023-02-01T18:20:49.405Z,5.38
2023-02-01T18:25:52.545Z,4.90
2023-02-01T18:30:54.396Z,5.03
2023-02-01T18:35:55.988Z,4.50
2023-02-01T18:41:01.129Z,5.88
2023-02-01T18:46:02.754Z,6.60
2023-02-01T18:51:05.102Z,5.43
2023-02-01T18:56:07.024Z,4.97
2023-02-01T19:01:15.521Z,4.40
2023-02-01T19:06:17.947Z,5.05
2023-02-01T19:11:19.593Z,4.13
2023-02-01T19:16:21.215Z,4.65
2023-02-01T19:21:22.702Z,3.95
2023-02-01T19:26:24.266Z,3.92
2023-02-01T19:31:25.902Z,2.33
2023-02-01T19:36:27.816Z,2.95
2023-02-01T19:41:29.289Z,3.10
2023-02-01T19:46:30.859Z,3.85
2023-02-01T19:51:32.352Z,3.45
2023-02-01T19:56:33.907Z,3.53
2023-02-01T20:01:37.146Z,2.85
2023-02-01T20:06:40.044Z,3.55
2023-02-01T20:11:41.578Z,3.90
2023-02-01T20:16:43.700Z,4.75
2023-02-01T20:21:45.283Z,4.00
2023-02-01T20:26:49.073Z,3.40
2023-02-01T20:31:51.496Z,3.50
2023-02-01T20:36:52.992Z,2.70
2023-02-01T20:41:55.106Z,3.05
2023-02-01T20:46:56.761Z,2.38
2023-02-01T20:51:58.332Z,2.70
2023-02-01T20:56:59.855Z,2.42
2023-02-01T21:02:01.545Z,3.55
2023-02-01T21:07:03.677Z,2.80
2023-02-01T21:12:05.307Z,2.70
2023-02-01T21:17:06.806Z,2.15
2023-02-01T21:22:09.553Z,2.30
2023-02-01T21:27:11.172Z,2.00
2023-02-01T21:32:13.514Z,1.85
2023-02-01T21:37:15.086Z,1.77
2023-02-01T21:42:18.402Z,3.03
2023-02-01T21:47:26.229Z,2.00
2023-02-01T21:52:28.477Z,2.38
2023-02-01T21:57:29.966Z,2.40
2023-02-01T22:02:31.630Z,2.10
2023-02-01T22:07:34.924Z,3.05
2023-02-01T22:12:36.440Z,3.75
2023-02-01T22:17:38.016Z,4.20
2023-02-01T22:22:39.495Z,4.57
2023-02-01T22:28:30.957Z,5.22
2023-02-01T22:33:03.439Z,4.78
2023-02-01T22:38:04.920Z,4.32
2023-02-01T22:43:06.430Z,5.13
2023-02-01T22:48:08.432Z,4.82
2023-02-01T22:53:10.471Z,5.85
2023-02-01T22:58:12.798Z,5.20
2023-02-01T23:03:14.405Z,4.80
2023-02-01T23:08:15.882Z,5.55
2023-02-01T23:13:17.396Z,5.32
2023-02-01T23:18:18.919Z,5.00
2023-02-01T23:23:20.430Z,3.80
2023-02-01T23:28:21.963Z,4.20
2023-02-01T23:33:27.496Z,5.15
2023-02-01T23:38:29.837Z,4.45
2023-02-01T23:43:50.202Z,4.30
2023-02-01T23:48:52.270Z,5.00
2023-02-01T23:53:55.271Z,5.57
2023-02-01T23:58:57.156Z,4.47
